Time;durP1;ratioP1;P1;durP2;ratioP2;P2;SDS_P1;SDS_P2;PMS_P1;PMS_P2;Temp;Humidity;BMP_temperature;BMP_pressure;BME280_temperature;BME280_humidity;BME280_pressure;Samples;Min_cycle;Max_cycle;Signal;HPM_P1;HPM_P2
2023/07/12 00:00:21;;;;;;;6.13;2.00;;;;;;;24.61;53.27;100295.56;5015112;28;20467;-69
2023/07/12 00:02:47;;;;;;;7.30;2.13;;;;;;;24.62;54.13;100299.91;5005048;28;20453;-69
2023/07/12 00:05:14;;;;;;;6.63;2.00;;;;;;;24.61;54.15;100291.97;5013076;28;20480;-69
2023/07/12 00:07:41;;;;;;;6.73;2.30;;;;;;;24.56;54.18;100293.19;5020548;28;20468;-69
2023/07/12 00:10:15;;;;;;;5.80;1.90;;;;;;;24.56;54.55;100286.88;5013392;28;20964;-71
2023/07/12 00:12:42;;;;;;;8.00;2.67;;;;;;;24.56;54.14;100292.41;5010388;28;20464;-70
2023/07/12 00:15:10;;;;;;;7.03;2.30;;;;;;;24.52;55.06;100291.63;5013764;28;20480;-72
2023/07/12 00:17:38;;;;;;;11.90;2.30;;;;;;;24.49;55.42;100275.84;5012457;28;20470;-70
2023/07/12 00:20:17;;;;;;;6.50;2.40;;;;;;;24.46;54.63;100282.19;5012613;28;20471;-71
2023/07/12 00:22:44;;;;;;;7.50;2.50;;;;;;;24.45;54.61;100264.78;5016771;28;20459;-70
2023/07/12 00:25:11;;;;;;;6.40;2.40;;;;;;;24.49;54.77;100264.75;5016406;28;20511;-70
2023/07/12 00:27:37;;;;;;;7.07;2.30;;;;;;;24.53;54.85;100265.53;5018898;28;20469;-71
2023/07/12 00:30:12;;;;;;;6.23;1.90;;;;;;;24.53;54.77;100276.63;5020454;28;20467;-70
2023/07/12 00:32:40;;;;;;;6.10;2.37;;;;;;;24.55;54.85;100275.00;5016506;28;20460;-71
2023/07/12 00:35:07;;;;;;;7.10;2.10;;;;;;;24.51;54.05;100265.13;5013790;28;20484;-70
2023/07/12 00:37:34;;;;;;;8.60;2.60;;;;;;;24.58;53.53;100262.34;5024506;28;20831;-71
2023/07/12 00:40:00;;;;;;;6.87;2.00;;;;;;;24.62;54.13;100257.56;5015290;28;20464;-69
2023/07/12 00:42:34;;;;;;;7.20;2.57;;;;;;;24.56;54.16;100242.56;5007036;28;20471;-71
2023/07/12 00:45:04;;;;;;;7.70;2.67;;;;;;;24.52;54.93;100225.94;5011722;28;20498;-72
2023/07/12 00:47:33;;;;;;;5.20;1.50;;;;;;;24.51;55.22;100218.84;5023223;28;20570;-70
2023/07/12 00:50:01;;;;;;;6.30;2.23;;;;;;;24.46;55.24;100224.81;5031047;28;20459;-70
2023/07/12 00:52:30;;;;;;;6.77;2.43;;;;;;;24.45;55.40;100209.41;5008638;28;20483;-72
2023/07/12 00:54:59;;;;;;;6.40;2.13;;;;;;;24.45;55.74;100203.84;5015447;28;20483;-70
2023/07/12 00:57:28;;;;;;;7.50;2.97;;;;;;;24.44;55.70;100193.16;5021593;28;20463;-70
2023/07/12 00:59:58;;;;;;;6.87;2.57;;;;;;;24.44;55.92;100184.88;5015387;28;20551;-70
2023/07/12 01:02:25;;;;;;;8.20;2.43;;;;;;;24.36;55.62;100176.59;5015788;28;20466;-71
2023/07/12 01:04:56;;;;;;;10.03;2.97;;;;;;;24.41;54.67;100178.16;5015678;28;20575;-70
2023/07/12 01:07:26;;;;;;;6.17;2.30;;;;;;;24.40;55.36;100160.78;5023184;28;20487;-70
2023/07/12 01:09:53;;;;;;;5.73;2.10;;;;;;;24.41;55.83;100159.56;5015804;28;20471;-70
2023/07/12 01:12:19;;;;;;;7.43;2.37;;;;;;;24.38;56.48;100156.81;5015061;28;20564;-72
2023/07/12 01:14:46;;;;;;;8.03;2.10;;;;;;;24.37;55.91;100153.28;5016961;28;20480;-71
2023/07/12 01:17:13;;;;;;;7.47;2.60;;;;;;;24.29;56.46;100146.16;5015637;28;20466;-67
2023/07/12 01:19:41;;;;;;;8.10;2.30;;;;;;;24.27;56.63;100140.25;5018510;28;20459;-67
2023/07/12 01:22:09;;;;;;;7.00;2.83;;;;;;;24.27;56.13;100148.56;5016132;28;20543;-67
2023/07/12 01:24:36;;;;;;;5.87;1.97;;;;;;;24.27;56.48;100140.25;5014620;28;20570;-68
2023/07/12 01:27:12;;;;;;;7.23;2.63;;;;;;;24.24;58.13;100137.50;5029597;28;20641;-71
2023/07/12 01:29:39;;;;;;;7.60;2.80;;;;;;;24.15;56.30;100132.41;5017034;28;20468;-69
2023/07/12 01:32:07;;;;;;;6.27;2.03;;;;;;;24.21;56.22;100127.25;5013477;28;20465;-69
2023/07/12 01:34:33;;;;;;;6.50;2.40;;;;;;;24.18;57.35;100123.31;5011728;28;20487;-70
2023/07/12 01:37:04;;;;;;;14.93;3.07;;;;;;;24.15;57.98;100116.59;5018219;28;20465;-69
2023/07/12 01:39:32;;;;;;;6.40;2.43;;;;;;;24.12;57.42;100103.56;5025146;28;20451;-70
2023/07/12 01:41:59;;;;;;;6.70;2.30;;;;;;;24.08;58.13;100107.53;5021476;28;20554;-78
2023/07/12 01:44:26;;;;;;;7.47;2.50;;;;;;;24.04;58.10;100101.25;5017273;28;20879;-71
2023/07/12 01:49:22;;;;;;;9.13;3.17;;;;;;;24.00;58.10;100081.91;4972343;28;20484;-73
2023/07/12 01:51:50;;;;;;;7.60;2.83;;;;;;;24.05;58.40;100094.53;4969824;28;20925;-74
2023/07/12 01:54:17;;;;;;;9.60;3.10;;;;;;;24.00;58.58;100087.44;4973597;28;20473;-73
2023/07/12 01:56:45;;;;;;;7.67;2.80;;;;;;;24.02;58.54;100087.03;4975596;28;20812;-73
2023/07/12 01:59:11;;;;;;;7.17;3.13;;;;;;;24.05;58.72;100075.16;4977459;28;20556;-74
2023/07/12 02:01:38;;;;;;;7.03;3.10;;;;;;;24.04;59.41;100068.03;4979153;28;20490;-73
2023/07/12 02:04:05;;;;;;;6.70;2.70;;;;;;;23.98;58.95;100053.06;4976132;28;20475;-73
2023/07/12 02:06:31;;;;;;;6.70;2.77;;;;;;;24.00;58.07;100047.94;4975944;28;20489;-73
2023/07/12 02:08:58;;;;;;;7.87;3.03;;;;;;;24.02;58.96;100045.53;4980444;28;20482;-73
2023/07/12 02:11:25;;;;;;;7.17;2.57;;;;;;;23.99;59.60;100038.03;4978568;28;20486;-73
2023/07/12 02:13:53;;;;;;;7.87;2.90;;;;;;;23.96;59.88;100025.03;4974998;28;20450;-73
2023/07/12 02:16:19;;;;;;;6.00;2.30;;;;;;;23.92;59.25;100014.75;4975523;28;20468;-73
2023/07/12 02:18:46;;;;;;;8.00;3.70;;;;;;;23.89;59.71;100018.34;4975234;28;20492;-74
2023/07/12 02:21:12;;;;;;;6.80;2.50;;;;;;;23.85;60.08;100011.25;4976227;28;20466;-72
2023/07/12 02:23:39;;;;;;;9.10;3.03;;;;;;;23.81;60.34;100022.34;4975219;28;20490;-73
2023/07/12 02:26:06;;;;;;;9.77;2.70;;;;;;;23.78;60.16;100016.84;4978487;28;20480;-73
2023/07/12 02:28:33;;;;;;;7.13;2.40;;;;;;;23.72;61.60;100010.94;4978566;28;20568;-73
2023/07/12 02:33:53;;;;;;;7.53;2.83;;;;;;;23.74;60.50;100011.34;5072865;28;21156;-72
2023/07/12 02:36:20;;;;;;;8.33;2.90;;;;;;;23.76;59.87;100008.94;5076741;28;20488;-72
2023/07/12 02:38:47;;;;;;;6.53;2.60;;;;;;;23.81;59.96;100013.25;5082176;28;22347;-71
2023/07/12 02:41:14;;;;;;;9.37;3.20;;;;;;;23.85;60.05;100014.03;5076586;28;20842;-72
2023/07/12 02:43:41;;;;;;;12.77;3.17;;;;;;;23.82;60.26;100001.81;5075438;28;20511;-71
2023/07/12 02:46:08;;;;;;;8.50;2.87;;;;;;;23.85;59.36;99989.91;5079178;28;20461;-71
2023/07/12 02:48:35;;;;;;;8.20;2.57;;;;;;;23.92;59.91;99989.09;5071212;28;20489;-72
2023/07/12 02:51:03;;;;;;;8.00;3.00;;;;;;;23.94;59.42;99985.91;5079934;28;20468;-72
2023/07/12 02:53:30;;;;;;;10.30;3.30;;;;;;;23.99;58.53;99988.22;5078944;28;20484;-72
2023/07/12 02:55:57;;;;;;;6.60;2.17;;;;;;;24.01;58.44;99992.19;5080439;28;20461;-72
2023/07/12 02:58:23;;;;;;;7.40;2.67;;;;;;;24.06;59.09;99996.50;5077312;28;20568;-70
2023/07/12 03:00:57;;;;;;;8.60;3.10;;;;;;;24.06;59.25;100000.03;5073618;28;20549;-71
2023/07/12 03:03:24;;;;;;;6.70;2.77;;;;;;;24.05;59.17;100017.84;5073501;28;20453;-71
2023/07/12 03:05:50;;;;;;;9.30;3.33;;;;;;;24.05;58.00;100053.81;5085831;28;20543;-72
2023/07/12 03:08:18;;;;;;;6.50;2.80;;;;;;;24.06;58.65;100049.84;5083079;28;20509;-72
2023/07/12 03:10:45;;;;;;;7.17;3.03;;;;;;;24.05;60.48;100025.34;5071829;28;20466;-72
2023/07/12 03:13:11;;;;;;;8.13;2.90;;;;;;;24.03;58.65;100030.50;5069528;28;20580;-71
2023/07/12 03:15:38;;;;;;;9.33;2.60;;;;;;;24.01;59.11;100030.13;5080387;28;20466;-71
2023/07/12 03:18:05;;;;;;;7.47;2.93;;;;;;;23.97;59.24;100021.84;5071054;28;20481;-71
2023/07/12 03:20:33;;;;;;;8.10;2.90;;;;;;;23.91;58.53;100009.66;5077022;28;20461;-72
2023/07/12 03:22:59;;;;;;;8.23;2.83;;;;;;;23.94;59.44;100021.88;5089379;28;20938;-71
2023/07/12 03:25:27;;;;;;;8.00;2.80;;;;;;;23.88;60.52;100010.44;5075224;28;20453;-71
2023/07/12 03:27:54;;;;;;;6.90;2.63;;;;;;;23.85;58.99;100023.09;5069492;28;20504;-71
2023/07/12 03:30:21;;;;;;;7.77;3.20;;;;;;;23.84;59.90;100006.91;5068937;28;20467;-71
2023/07/12 03:32:47;;;;;;;8.53;3.27;;;;;;;23.80;59.64;100006.94;5068271;28;20516;-71
2023/07/12 03:35:14;;;;;;;7.90;3.20;;;;;;;23.72;61.09;100002.63;5069851;28;20489;-71
2023/07/12 03:37:41;;;;;;;7.33;2.97;;;;;;;23.72;59.81;100013.69;5076119;28;20520;-72
2023/07/12 03:40:08;;;;;;;7.30;2.57;;;;;;;23.74;60.30;100005.81;5085821;28;20874;-71
2023/07/12 03:42:36;;;;;;;6.57;2.50;;;;;;;23.79;59.51;100008.13;5088171;28;20464;-71
2023/07/12 03:45:03;;;;;;;7.67;2.73;;;;;;;23.79;61.32;100007.34;5063928;28;20458;-71
2023/07/12 03:47:30;;;;;;;6.80;2.67;;;;;;;23.75;63.58;99999.06;5058960;28;20477;-71
2023/07/12 03:49:57;;;;;;;9.87;3.20;;;;;;;23.73;61.20;100003.41;5065373;28;20497;-71
2023/07/12 03:52:23;;;;;;;7.80;3.50;;;;;;;23.69;60.60;99997.94;5057552;28;20486;-71
2023/07/12 03:54:50;;;;;;;7.40;3.40;;;;;;;23.70;62.74;99999.50;5072771;28;21029;-71
2023/07/12 03:57:17;;;;;;;7.57;3.50;;;;;;;23.71;61.78;100000.28;5057446;28;20489;-72
2023/07/12 03:59:45;;;;;;;9.10;3.27;;;;;;;23.69;63.82;100003.47;5062364;28;20461;-72
2023/07/12 04:02:11;;;;;;;8.90;3.17;;;;;;;23.69;65.18;99997.94;5071844;28;20459;-72
2023/07/12 04:04:38;;;;;;;7.87;3.13;;;;;;;23.64;64.25;99996.38;5065354;28;20545;-72
2023/07/12 04:07:05;;;;;;;8.30;3.63;;;;;;;23.66;64.90;99995.97;5065392;28;20493;-71
2023/07/12 04:09:31;;;;;;;9.47;3.97;;;;;;;23.66;66.30;99995.97;5061442;28;20557;-72
2023/07/12 04:11:58;;;;;;;7.10;2.60;;;;;;;23.65;67.42;99989.66;5062024;28;20509;-71
2023/07/12 04:14:24;;;;;;;7.53;2.63;;;;;;;23.58;66.49;99992.44;5059090;28;20490;-72
2023/07/12 04:16:52;;;;;;;10.23;3.80;;;;;;;23.59;66.62;99993.22;5059030;28;20458;-72
2023/07/12 04:19:19;;;;;;;11.60;3.53;;;;;;;23.62;68.72;99995.16;5054428;28;20494;-72
2023/07/12 04:21:45;;;;;;;13.57;4.07;;;;;;;23.58;67.07;99994.41;5054729;28;20543;-71
2023/07/12 04:24:12;;;;;;;13.53;4.30;;;;;;;23.60;68.25;99992.03;5054101;28;20943;-71
2023/07/12 04:26:39;;;;;;;8.33;3.53;;;;;;;23.56;68.58;99989.28;5063232;28;20545;-71
2023/07/12 04:29:05;;;;;;;7.80;3.50;;;;;;;23.59;70.68;99995.97;5060090;28;21054;-74
2023/07/12 04:31:32;;;;;;;18.93;4.40;;;;;;;23.58;71.20;99991.63;5066867;28;20465;-74
2023/07/12 04:34:00;;;;;;;10.93;2.97;;;;;;;23.58;69.44;99986.09;5062625;28;20502;-72
2023/07/12 04:36:27;;;;;;;10.00;3.43;;;;;;;23.59;70.18;99984.91;5070734;28;20461;-73
2023/07/12 04:38:53;;;;;;;31.87;5.50;;;;;;;23.62;72.67;99986.88;5068424;28;20485;-73
2023/07/12 04:41:20;;;;;;;13.77;4.30;;;;;;;23.62;72.55;99998.72;5054553;28;20462;-74
2023/07/12 04:43:46;;;;;;;13.23;3.97;;;;;;;23.58;71.71;99977.81;5054094;28;20486;-73
2023/07/12 04:46:13;;;;;;;17.83;4.10;;;;;;;23.59;72.33;99991.22;5054590;28;20446;-73
2023/07/12 04:48:40;;;;;;;13.03;4.20;;;;;;;23.55;72.21;99981.38;5052870;28;20995;-72
2023/07/12 04:51:08;;;;;;;6.57;2.90;;;;;;;23.56;69.23;100000.34;5054430;28;20493;-72
2023/07/12 04:53:34;;;;;;;14.43;4.13;;;;;;;23.64;70.58;99998.31;5054413;28;20485;-73
2023/07/12 04:56:02;;;;;;;20.33;4.33;;;;;;;23.64;67.85;100007.44;5054194;28;20547;-73
2023/07/12 04:58:29;;;;;;;6.73;2.40;;;;;;;23.71;69.28;100008.59;5067544;28;21001;-72
2023/07/12 05:00:56;;;;;;;20.70;4.50;;;;;;;23.78;67.29;100014.09;5066898;28;20511;-72
2023/07/12 05:03:22;;;;;;;12.80;3.50;;;;;;;23.84;72.00;100029.06;5058610;28;20445;-72
2023/07/12 05:05:49;;;;;;;10.47;3.97;;;;;;;23.83;67.70;100016.41;5059179;28;20541;-72
2023/07/12 05:08:17;;;;;;;10.30;4.00;;;;;;;23.87;69.87;100015.19;5068525;28;20505;-73
2023/07/12 05:10:44;;;;;;;8.70;3.27;;;;;;;23.82;73.02;100021.16;5055809;28;20466;-72
2023/07/12 05:13:11;;;;;;;8.50;3.80;;;;;;;23.83;72.05;100025.50;5065389;28;20994;-72
2023/07/12 05:15:38;;;;;;;8.30;2.97;;;;;;;23.84;69.82;100032.59;5068723;28;20559;-72
2023/07/12 05:18:04;;;;;;;7.80;3.83;;;;;;;23.90;70.56;100025.44;5059239;28;20564;-72
2023/07/12 05:20:32;;;;;;;8.30;3.90;;;;;;;23.91;70.44;100038.09;5059553;28;20486;-72
2023/07/12 05:22:58;;;;;;;11.70;3.70;;;;;;;23.96;73.77;100039.66;5054082;28;20462;-72
2023/07/12 05:25:26;;;;;;;10.90;3.70;;;;;;;23.92;71.74;100038.88;5054517;28;20580;-72
2023/07/12 05:27:53;;;;;;;8.90;3.90;;;;;;;23.91;71.32;100035.34;5057669;28;21018;-72
2023/07/12 05:30:20;;;;;;;9.00;4.07;;;;;;;23.95;71.87;100042.81;5070129;28;20957;-73
2023/07/12 05:32:46;;;;;;;11.13;3.50;;;;;;;23.89;70.25;100040.47;5062913;28;20966;-73
2023/07/12 05:35:13;;;;;;;7.10;2.70;;;;;;;23.97;71.25;100040.44;5060759;28;20470;-73
2023/07/12 05:37:39;;;;;;;10.80;3.80;;;;;;;24.05;74.07;100037.22;5058103;28;20473;-74
2023/07/12 05:40:09;;;;;;;7.67;3.30;;;;;;;24.09;75.32;100054.56;5071625;28;20538;-73
2023/07/12 05:42:40;;;;;;;9.87;4.40;;;;;;;24.06;73.67;100057.38;5055808;28;20454;-73
2023/07/12 05:45:08;;;;;;;9.23;4.20;;;;;;;24.07;71.25;100072.78;5053726;28;20459;-73
2023/07/12 05:47:35;;;;;;;7.97;3.70;;;;;;;24.16;69.97;100065.59;5053951;28;21843;-74
2023/07/12 05:50:01;;;;;;;8.83;4.03;;;;;;;24.23;70.71;100075.03;5059194;28;20500;-72
2023/07/12 05:52:28;;;;;;;7.50;3.50;;;;;;;24.29;70.87;100078.94;5059185;28;21025;-73
2023/07/12 05:54:55;;;;;;;11.00;4.03;;;;;;;24.35;70.79;100080.09;5054739;28;20500;-72
2023/07/12 05:57:22;;;;;;;9.77;3.27;;;;;;;24.40;71.31;100086.00;5057621;28;20561;-73
2023/07/12 05:59:49;;;;;;;12.63;4.67;;;;;;;24.51;71.48;100094.22;5054426;28;20557;-73
2023/07/12 06:02:16;;;;;;;10.37;4.40;;;;;;;24.52;73.01;100092.25;5054656;28;20466;-71
2023/07/12 06:04:43;;;;;;;7.87;3.17;;;;;;;24.60;70.83;100100.09;5052947;28;20545;-72
2023/07/12 06:07:09;;;;;;;7.90;3.23;;;;;;;24.67;70.81;100099.25;5056495;28;20509;-74
2023/07/12 06:09:36;;;;;;;7.97;3.73;;;;;;;24.71;70.72;100099.22;5056834;28;20494;-73
2023/07/12 06:12:03;;;;;;;11.60;4.47;;;;;;;24.71;72.37;100105.56;5053972;28;20450;-77
2023/07/12 06:14:30;;;;;;;7.93;3.80;;;;;;;24.70;72.72;100109.50;5054135;28;20570;-75
2023/07/12 06:16:58;;;;;;;8.47;3.73;;;;;;;24.72;72.62;100117.41;5056711;28;20453;-74
2023/07/12 06:19:24;;;;;;;9.30;3.77;;;;;;;24.69;73.33;100118.22;5070692;28;20501;-74
2023/07/12 06:21:52;;;;;;;7.23;3.40;;;;;;;24.77;73.24;100116.97;5070657;28;20465;-76
2023/07/12 06:24:19;;;;;;;10.47;3.70;;;;;;;24.83;72.98;100118.09;5055232;28;20545;-74
2023/07/12 06:26:46;;;;;;;7.47;2.97;;;;;;;24.88;73.78;100121.22;5056480;28;20818;-75
2023/07/12 06:29:13;;;;;;;8.23;3.57;;;;;;;25.01;73.04;100118.69;5054218;28;20829;-74
2023/07/12 06:31:42;;;;;;;6.70;2.70;;;;;;;25.06;73.68;100114.72;5054648;28;20465;-74
2023/07/12 06:34:11;;;;;;;8.53;3.43;;;;;;;25.11;73.44;100122.63;5071058;28;20473;-72
2023/07/12 06:36:38;;;;;;;6.57;2.50;;;;;;;25.11;73.99;100123.41;5063180;28;20464;-72
2023/07/12 06:39:04;;;;;;;6.40;2.87;;;;;;;25.27;72.97;100122.03;5063084;28;20491;-72
2023/07/12 06:41:31;;;;;;;6.07;2.47;;;;;;;25.42;72.97;100121.47;5057414;28;20553;-73
2023/07/12 06:43:57;;;;;;;8.90;2.40;;;;;;;25.62;71.52;100129.16;5055367;28;20461;-74
2023/07/12 06:46:24;;;;;;;6.87;2.90;;;;;;;25.78;70.27;100165.47;5054374;28;20500;-74
2023/07/12 06:48:51;;;;;;;8.50;3.57;;;;;;;25.87;69.82;100145.53;5065909;28;20572;-75
2023/07/12 06:51:19;;;;;;;8.80;3.70;;;;;;;25.97;70.06;100138.28;5056026;28;20466;-73
2023/07/12 06:53:46;;;;;;;8.93;3.77;;;;;;;25.98;69.17;100153.72;5069207;28;20481;-73
2023/07/12 06:56:13;;;;;;;7.17;2.83;;;;;;;26.05;69.41;100159.19;5061712;28;20560;-74
2023/07/12 06:58:40;;;;;;;6.40;2.67;;;;;;;26.03;69.56;100167.94;5050976;28;20478;-74
2023/07/12 07:01:08;;;;;;;8.10;3.07;;;;;;;26.17;69.47;100164.97;5051803;28;20508;-74
2023/07/12 07:03:35;;;;;;;8.20;2.73;;;;;;;26.25;69.81;100185.06;5053731;28;20471;-74
2023/07/12 07:06:02;;;;;;;6.73;3.00;;;;;;;26.30;67.99;100195.75;5072935;28;20570;-74
2023/07/12 07:08:31;;;;;;;6.80;2.80;;;;;;;26.33;67.92;100200.44;5056413;28;20551;-73
2023/07/12 07:10:58;;;;;;;7.60;3.30;;;;;;;26.32;66.92;100204.44;5051702;28;20500;-74
2023/07/12 07:13:25;;;;;;;8.43;3.17;;;;;;;26.46;66.83;100208.25;5054808;28;20486;-73
2023/07/12 07:15:52;;;;;;;7.30;2.80;;;;;;;26.41;66.20;100217.78;5052549;28;20468;-74
2023/07/12 07:18:19;;;;;;;7.83;3.23;;;;;;;26.42;65.82;100236.81;5056178;28;20484;-74
2023/07/12 07:20:46;;;;;;;7.03;2.63;;;;;;;26.17;66.16;100230.81;5057716;28;20461;-74
2023/07/12 07:23:13;;;;;;;6.70;2.93;;;;;;;26.05;66.06;100239.69;5067193;28;21015;-75
2023/07/12 07:25:41;;;;;;;9.17;2.93;;;;;;;26.05;67.25;100239.69;5059374;28;20507;-74
2023/07/12 07:28:08;;;;;;;8.13;2.87;;;;;;;25.96;67.08;100248.53;5058232;28;20528;-74
2023/07/12 07:30:35;;;;;;;7.53;3.40;;;;;;;25.83;66.82;100251.03;5073329;28;20467;-73
2023/07/12 07:33:01;;;;;;;8.33;3.57;;;;;;;25.78;66.65;100259.81;5058535;28;20473;-74
2023/07/12 07:35:28;;;;;;;8.07;3.17;;;;;;;25.79;66.19;100255.84;5059693;28;20462;-73
2023/07/12 07:37:54;;;;;;;8.13;3.30;;;;;;;25.75;67.66;100254.28;5056335;28;20577;-74
2023/07/12 07:40:21;;;;;;;7.13;2.93;;;;;;;25.60;68.39;100261.97;5067935;28;20932;-74
2023/07/12 07:42:49;;;;;;;8.43;3.67;;;;;;;25.63;68.75;100270.25;5060034;28;20458;-74
2023/07/12 07:45:16;;;;;;;9.60;3.70;;;;;;;25.60;67.81;100264.75;5070898;28;20962;-74
2023/07/12 07:47:42;;;;;;;9.80;3.70;;;;;;;25.60;66.27;100284.94;5057391;28;20888;-73
2023/07/12 07:50:09;;;;;;;8.07;3.17;;;;;;;25.45;66.44;100266.84;5068903;28;20454;-75
2023/07/12 07:52:36;;;;;;;7.10;2.83;;;;;;;25.39;66.41;100258.19;5066485;28;20494;-73
2023/07/12 07:55:02;;;;;;;5.90;2.60;;;;;;;25.46;65.73;100267.66;5068799;28;20556;-72
2023/07/12 07:57:29;;;;;;;8.30;3.10;;;;;;;25.45;65.74;100266.06;5056194;28;20935;-71
2023/07/12 07:59:59;;;;;;;8.83;2.83;;;;;;;25.31;66.25;100247.56;5064258;28;20464;-74
2023/07/12 08:02:25;;;;;;;9.30;2.80;;;;;;;25.19;67.24;100246.09;5058968;28;20465;-74
2023/07/12 08:04:52;;;;;;;7.57;2.60;;;;;;;25.05;68.50;100224.78;5056769;28;20465;-71
2023/07/12 08:07:19;;;;;;;5.90;2.07;;;;;;;25.14;66.85;100238.22;5058616;28;20482;-74
2023/07/12 08:09:46;;;;;;;7.70;2.00;;;;;;;25.12;67.82;100251.69;5057346;28;20473;-74
2023/07/12 08:12:12;;;;;;;5.53;1.60;;;;;;;25.18;65.95;100266.69;5057947;28;20974;-73
2023/07/12 08:14:39;;;;;;;5.60;2.13;;;;;;;25.15;65.50;100273.84;5054688;28;20577;-74
2023/07/12 08:17:08;;;;;;;6.40;1.80;;;;;;;25.14;67.02;100272.25;5065433;28;20508;-74
2023/07/12 08:19:35;;;;;;;8.07;2.00;;;;;;;25.13;65.53;100281.00;5058990;28;20462;-75
2023/07/12 08:22:01;;;;;;;5.57;1.63;;;;;;;25.13;66.13;100281.78;5075407;28;20449;-74
2023/07/12 08:24:28;;;;;;;6.30;2.13;;;;;;;25.37;65.50;100271.69;5067156;28;20827;-73
2023/07/12 08:26:54;;;;;;;6.17;2.40;;;;;;;25.37;64.52;100291.09;5055213;28;20454;-74
2023/07/12 08:29:21;;;;;;;5.50;1.53;;;;;;;25.32;66.36;100290.72;5056076;28;21023;-73
2023/07/12 08:31:47;;;;;;;4.83;1.60;;;;;;;25.40;65.79;100295.81;5071529;28;20500;-74
2023/07/12 08:34:15;;;;;;;5.40;1.43;;;;;;;25.53;65.37;100303.63;5074784;28;20474;-74
2023/07/12 08:36:42;;;;;;;6.37;1.70;;;;;;;25.42;65.49;100298.97;5071150;28;20461;-73
2023/07/12 08:39:08;;;;;;;5.33;1.50;;;;;;;25.21;66.29;100290.84;5056920;28;20561;-74
2023/07/12 08:41:38;;;;;;;5.10;1.60;;;;;;;25.14;66.69;100301.97;5055429;28;20458;-74
2023/07/12 08:44:10;;;;;;;5.40;1.60;;;;;;;25.05;67.25;100293.28;5054915;28;20446;-73
2023/07/12 08:46:40;;;;;;;5.43;1.90;;;;;;;25.19;68.33;100301.56;5051410;28;20462;-73
2023/07/12 08:49:10;;;;;;;6.53;1.57;;;;;;;25.15;67.69;100295.25;5054618;28;20482;-74
2023/07/12 08:51:39;;;;;;;4.90;1.40;;;;;;;25.02;68.24;100292.13;5057873;28;20537;-73
2023/07/12 08:54:06;;;;;;;5.73;1.90;;;;;;;25.02;69.17;100280.28;5055251;28;20536;-74
2023/07/12 08:56:33;;;;;;;5.07;1.60;;;;;;;25.12;67.74;100291.28;5054691;28;20446;-75
2023/07/12 08:59:01;;;;;;;4.40;1.03;;;;;;;25.07;69.07;100299.22;5054300;28;21013;-73
2023/07/12 09:01:42;;;;;;;5.47;1.70;;;;;;;24.95;69.70;100302.47;5053771;28;20829;-74
2023/07/12 09:04:21;;;;;;;4.60;1.30;;;;;;;25.10;71.03;100296.47;5054993;28;20441;-74
2023/07/12 09:06:50;;;;;;;9.27;1.73;;;;;;;25.21;69.44;100287.28;5056809;28;20469;-73
2023/07/12 09:09:18;;;;;;;4.93;1.30;;;;;;;25.23;69.91;100288.44;5055042;28;20481;-74
2023/07/12 09:11:45;;;;;;;4.57;1.27;;;;;;;25.30;68.21;100293.13;5056138;28;20815;-73
2023/07/12 09:14:15;;;;;;;5.17;1.33;;;;;;;25.38;68.05;100298.22;5051997;28;20518;-74
2023/07/12 09:16:42;;;;;;;5.23;1.40;;;;;;;25.43;68.73;100310.84;5054576;28;20442;-73
2023/07/12 09:19:14;;;;;;;5.50;1.60;;;;;;;25.55;67.44;100323.44;5054373;28;20462;-74
2023/07/12 09:21:54;;;;;;;4.73;1.33;;;;;;;25.63;68.69;100322.16;5054279;28;20454;-72
2023/07/12 09:24:23;;;;;;;5.10;1.60;;;;;;;25.62;67.49;100328.91;5050860;28;20947;-74
2023/07/12 09:26:51;;;;;;;4.80;1.10;;;;;;;25.65;68.54;100319.78;5054056;28;20815;-74
2023/07/12 09:29:21;;;;;;;4.87;1.00;;;;;;;25.73;68.00;100324.06;5054012;28;20442;-74
2023/07/12 09:31:49;;;;;;;5.40;1.67;;;;;;;25.75;67.34;100327.22;5056632;28;20473;-74
2023/07/12 09:34:21;;;;;;;4.80;1.40;;;;;;;25.73;68.13;100320.50;5057503;28;20513;-74
2023/07/12 09:36:57;;;;;;;4.67;1.23;;;;;;;25.63;68.68;100328.53;5053998;28;20510;-73
2023/07/12 09:39:25;;;;;;;4.87;1.13;;;;;;;25.90;66.36;100325.91;5067973;28;20464;-72
2023/07/12 09:41:55;;;;;;;5.77;1.20;;;;;;;25.87;66.16;100318.41;5057216;28;20968;-72
2023/07/12 09:44:22;;;;;;;6.33;1.20;;;;;;;25.87;66.47;100331.50;5062786;28;20427;-73
2023/07/12 09:46:54;;;;;;;5.30;1.60;;;;;;;25.85;66.46;100329.16;5053561;28;20520;-73
2023/07/12 09:49:23;;;;;;;6.20;1.70;;;;;;;25.83;65.89;100328.75;5062780;28;20480;-73
2023/07/12 09:52:01;;;;;;;4.30;1.10;;;;;;;26.08;67.05;100328.50;5064213;28;20448;-73
2023/07/12 09:54:45;;;;;;;4.70;1.37;;;;;;;26.34;66.67;100338.13;5069843;28;21104;-73
2023/07/12 09:57:18;;;;;;;5.20;1.30;;;;;;;26.51;63.63;100347.44;5065578;28;20548;-72
2023/07/12 10:00:06;;;;;;;4.63;1.23;;;;;;;26.66;64.62;100361.97;5063736;28;20867;-73
2023/07/12 10:02:42;;;;;;;4.50;1.00;;;;;;;26.80;60.27;100358.22;5053638;28;20426;-72
2023/07/12 10:05:13;;;;;;;4.40;0.90;;;;;;;26.70;61.90;100362.72;5053545;28;20509;-73
2023/07/12 10:07:53;;;;;;;6.83;1.50;;;;;;;26.65;61.00;100371.50;5064707;28;20489;-73
2023/07/12 10:10:26;;;;;;;4.20;0.83;;;;;;;26.77;60.69;100375.72;5053210;28;20907;-74
2023/07/12 10:13:06;;;;;;;4.10;0.70;;;;;;;26.99;61.85;100357.53;5059004;28;20427;-74
2023/07/12 10:15:37;;;;;;;4.67;0.90;;;;;;;27.00;59.61;100370.22;5055327;28;20657;-73
2023/07/12 10:18:04;;;;;;;4.60;1.00;;;;;;;26.92;59.37;100374.34;5064508;28;20481;-73
2023/07/12 10:20:31;;;;;;;4.50;0.97;;;;;;;26.92;60.68;100372.34;5052391;28;20605;-73
2023/07/12 10:23:00;;;;;;;5.00;0.93;;;;;;;26.96;61.11;100374.28;5058110;28;20504;-73
2023/07/12 10:25:31;;;;;;;5.00;1.20;;;;;;;27.09;59.27;100376.13;5068533;28;20438;-73
2023/07/12 10:28:03;;;;;;;4.40;1.03;;;;;;;27.08;59.11;100365.38;5070594;28;20465;-73
2023/07/12 10:30:32;;;;;;;4.43;0.97;;;;;;;26.80;59.46;100367.34;5061351;28;20448;-73
2023/07/12 10:33:05;;;;;;;5.17;1.20;;;;;;;26.67;59.18;100369.09;5051519;28;20512;-72
2023/07/12 10:35:41;;;;;;;4.90;1.00;;;;;;;26.74;59.37;100374.56;5059390;28;20551;-74
2023/07/12 10:38:13;;;;;;;7.40;1.47;;;;;;;26.88;59.33;100373.59;5064547;28;20507;-73
2023/07/12 10:40:46;;;;;;;4.27;0.83;;;;;;;26.88;59.52;100379.94;5073664;28;20480;-74
2023/07/12 10:43:18;;;;;;;4.80;1.30;;;;;;;26.84;57.60;100384.75;5067026;28;20840;-74
2023/07/12 10:45:47;;;;;;;5.33;0.80;;;;;;;27.02;57.69;100372.63;5057126;28;20482;-74
2023/07/12 10:48:22;;;;;;;5.00;1.50;;;;;;;27.29;56.97;100384.56;5071311;28;20848;-71
2023/07/12 10:50:57;;;;;;;4.80;1.20;;;;;;;27.54;56.39;100383.38;5056382;28;20532;-73
2023/07/12 10:53:27;;;;;;;4.50;0.90;;;;;;;27.71;54.46;100381.50;5065957;28;20494;-74
2023/07/12 10:56:17;;;;;;;6.83;1.57;;;;;;;27.79;55.03;100396.91;5076981;28;20473;-73
2023/07/12 10:58:49;;;;;;;4.27;0.80;;;;;;;27.64;55.21;100388.78;5076724;28;20961;-74
2023/07/12 11:01:46;;;;;;;4.43;1.00;;;;;;;27.69;54.24;100393.06;5076235;28;20516;-73
2023/07/12 11:04:15;;;;;;;4.10;0.80;;;;;;;27.70;54.70;100394.63;5076012;28;20491;-73
2023/07/12 11:06:57;;;;;;;4.40;0.93;;;;;;;27.70;53.13;100400.19;5076398;28;20869;-73
2023/07/12 11:09:27;;;;;;;4.53;0.87;;;;;;;27.58;52.31;100407.16;5076241;28;20472;-74
2023/07/12 11:12:05;;;;;;;4.30;0.80;;;;;;;27.35;51.63;100415.47;5076159;28;20539;-73
2023/07/12 11:14:51;;;;;;;4.57;1.00;;;;;;;27.37;50.21;100415.84;5076126;28;20576;-74
2023/07/12 11:17:21;;;;;;;4.70;0.83;;;;;;;27.52;51.47;100411.63;5075987;28;21014;-73
2023/07/12 11:20:03;;;;;;;4.20;0.70;;;;;;;27.82;50.64;100413.56;5075883;28;20772;-74
2023/07/12 11:22:51;;;;;;;5.10;1.10;;;;;;;27.96;48.88;100415.31;5076545;28;20505;-73
2023/07/12 11:25:29;;;;;;;7.70;0.97;;;;;;;27.77;51.62;100416.03;5076451;28;20452;-73
2023/07/12 11:27:59;;;;;;;5.47;1.00;;;;;;;27.73;49.19;100416.09;5076636;28;20915;-74
2023/07/12 11:30:40;;;;;;;4.40;0.80;;;;;;;27.74;49.28;100423.22;5076655;28;20472;-73
2023/07/12 11:33:16;;;;;;;4.57;0.60;;;;;;;27.76;49.68;100418.03;5076218;28;20563;-73
2023/07/12 11:35:47;;;;;;;3.97;0.50;;;;;;;27.85;49.00;100418.28;5075986;28;20464;-74